sensor_id;sensor_type;location;lat;lon;timestamp;P1;durP1;ratioP1;P2;durP2;ratioP2
68025;SDS011;54819;48.030;14.710;2022-10-31T00:01:22;8.80;;;5.30;;
68025;SDS011;54819;48.030;14.710;2022-10-31T00:03:54;11.50;;;6.00;;
68025;SDS011;54819;48.030;14.710;2022-10-31T00:06:22;7.40;;;4.80;;
68025;SDS011;54819;48.030;14.710;2022-10-31T00:09:01;6.90;;;4.60;;
68025;SDS011;54819;48.030;14.710;2022-10-31T00:11:29;11.90;;;4.90;;
68025;SDS011;54819;48.030;14.710;2022-10-31T00:13:57;6.50;;;4.50;;
68025;SDS011;54819;48.030;14.710;2022-10-31T00:16:26;7.30;;;4.30;;
68025;SDS011;54819;48.030;14.710;2022-10-31T00:18:57;6.80;;;4.70;;
68025;SDS011;54819;48.030;14.710;2022-10-31T00:21:26;8.20;;;5.20;;
68025;SDS011;54819;48.030;14.710;2022-10-31T00:26:20;8.00;;;5.20;;
68025;SDS011;54819;48.030;14.710;2022-10-31T00:28:47;9.90;;;5.70;;
68025;SDS011;54819;48.030;14.710;2022-10-31T00:31:15;6.60;;;4.50;;
68025;SDS011;54819;48.030;14.710;2022-10-31T00:36:16;5.70;;;4.00;;
68025;SDS011;54819;48.030;14.710;2022-10-31T00:38:45;6.60;;;3.90;;
68025;SDS011;54819;48.030;14.710;2022-10-31T00:41:15;6.70;;;4.40;;
68025;SDS011;54819;48.030;14.710;2022-10-31T00:43:43;5.40;;;4.00;;
68025;SDS011;54819;48.030;14.710;2022-10-31T00:46:11;7.50;;;3.80;;
68025;SDS011;54819;48.030;14.710;2022-10-31T00:48:40;10.20;;;4.60;;
68025;SDS011;54819;48.030;14.710;2022-10-31T00:51:08;8.50;;;4.50;;
68025;SDS011;54819;48.030;14.710;2022-10-31T00:56:03;6.30;;;4.60;;
68025;SDS011;54819;48.030;14.710;2022-10-31T00:58:30;6.40;;;4.20;;
68025;SDS011;54819;48.030;14.710;2022-10-31T01:00:57;7.70;;;4.70;;
68025;SDS011;54819;48.030;14.710;2022-10-31T01:03:27;9.20;;;4.90;;
68025;SDS011;54819;48.030;14.710;2022-10-31T01:08:32;6.10;;;4.10;;
68025;SDS011;54819;48.030;14.710;2022-10-31T01:13:32;5.10;;;3.50;;
68025;SDS011;54819;48.030;14.710;2022-10-31T01:16:02;6.50;;;4.00;;
68025;SDS011;54819;48.030;14.710;2022-10-31T01:18:32;6.20;;;3.90;;
68025;SDS011;54819;48.030;14.710;2022-10-31T01:21:06;10.60;;;4.50;;
68025;SDS011;54819;48.030;14.710;2022-10-31T01:23:35;5.50;;;3.90;;
68025;SDS011;54819;48.030;14.710;2022-10-31T01:26:10;5.90;;;3.90;;
68025;SDS011;54819;48.030;14.710;2022-10-31T01:28:53;11.20;;;4.00;;
68025;SDS011;54819;48.030;14.710;2022-10-31T01:31:28;6.00;;;3.50;;
68025;SDS011;54819;48.030;14.710;2022-10-31T01:33:57;5.40;;;3.60;;
68025;SDS011;54819;48.030;14.710;2022-10-31T01:36:27;6.50;;;3.80;;
68025;SDS011;54819;48.030;14.710;2022-10-31T01:38:59;5.50;;;3.30;;
68025;SDS011;54819;48.030;14.710;2022-10-31T01:41:33;4.60;;;3.10;;
68025;SDS011;54819;48.030;14.710;2022-10-31T01:47:08;8.80;;;3.80;;
68025;SDS011;54819;48.030;14.710;2022-10-31T01:49:46;7.90;;;4.20;;
68025;SDS011;54819;48.030;14.710;2022-10-31T01:52:28;5.90;;;3.90;;
68025;SDS011;54819;48.030;14.710;2022-10-31T01:55:06;6.10;;;3.70;;
68025;SDS011;54819;48.030;14.710;2022-10-31T01:57:40;5.50;;;3.30;;
68025;SDS011;54819;48.030;14.710;2022-10-31T02:00:12;5.00;;;3.40;;
68025;SDS011;54819;48.030;14.710;2022-10-31T02:02:40;6.50;;;4.00;;
68025;SDS011;54819;48.030;14.710;2022-10-31T02:05:12;9.50;;;4.60;;
68025;SDS011;54819;48.030;14.710;2022-10-31T02:07:48;7.20;;;4.40;;
68025;SDS011;54819;48.030;14.710;2022-10-31T02:10:32;6.00;;;3.90;;
68025;SDS011;54819;48.030;14.710;2022-10-31T02:13:02;9.30;;;5.90;;
68025;SDS011;54819;48.030;14.710;2022-10-31T02:15:36;7.70;;;5.20;;
68025;SDS011;54819;48.030;14.710;2022-10-31T02:18:05;7.40;;;4.70;;
68025;SDS011;54819;48.030;14.710;2022-10-31T02:21:11;7.30;;;4.90;;
68025;SDS011;54819;48.030;14.710;2022-10-31T02:27:09;6.90;;;4.50;;
68025;SDS011;54819;48.030;14.710;2022-10-31T02:32:38;6.90;;;3.90;;
68025;SDS011;54819;48.030;14.710;2022-10-31T02:41:50;12.20;;;6.10;;
68025;SDS011;54819;48.030;14.710;2022-10-31T02:47:05;7.10;;;4.10;;
68025;SDS011;54819;48.030;14.710;2022-10-31T02:57:54;8.40;;;4.50;;
68025;SDS011;54819;48.030;14.710;2022-10-31T03:00:26;6.30;;;3.90;;
68025;SDS011;54819;48.030;14.710;2022-10-31T03:11:07;6.10;;;3.80;;
68025;SDS011;54819;48.030;14.710;2022-10-31T03:13:41;5.50;;;3.70;;
68025;SDS011;54819;48.030;14.710;2022-10-31T03:19:14;5.10;;;3.10;;
68025;SDS011;54819;48.030;14.710;2022-10-31T03:21:45;5.50;;;3.40;;
68025;SDS011;54819;48.030;14.710;2022-10-31T03:24:23;6.30;;;3.50;;
68025;SDS011;54819;48.030;14.710;2022-10-31T03:26:56;7.60;;;4.20;;
68025;SDS011;54819;48.030;14.710;2022-10-31T03:29:28;6.50;;;3.60;;
68025;SDS011;54819;48.030;14.710;2022-10-31T03:32:03;6.50;;;3.70;;
68025;SDS011;54819;48.030;14.710;2022-10-31T03:34:36;7.70;;;3.60;;
68025;SDS011;54819;48.030;14.710;2022-10-31T03:37:08;6.50;;;3.50;;
68025;SDS011;54819;48.030;14.710;2022-10-31T03:39:38;6.20;;;3.50;;
68025;SDS011;54819;48.030;14.710;2022-10-31T03:42:15;6.70;;;3.60;;
68025;SDS011;54819;48.030;14.710;2022-10-31T03:44:57;8.00;;;3.80;;
68025;SDS011;54819;48.030;14.710;2022-10-31T03:47:29;5.90;;;3.60;;
68025;SDS011;54819;48.030;14.710;2022-10-31T03:49:58;6.50;;;3.30;;
68025;SDS011;54819;48.030;14.710;2022-10-31T03:52:28;11.20;;;4.50;;
68025;SDS011;54819;48.030;14.710;2022-10-31T03:58:21;7.80;;;3.60;;
68025;SDS011;54819;48.030;14.710;2022-10-31T04:01:06;7.60;;;3.80;;
68025;SDS011;54819;48.030;14.710;2022-10-31T04:03:37;6.50;;;3.30;;
68025;SDS011;54819;48.030;14.710;2022-10-31T04:06:08;7.10;;;3.80;;
68025;SDS011;54819;48.030;14.710;2022-10-31T04:08:46;7.10;;;3.60;;
68025;SDS011;54819;48.030;14.710;2022-10-31T04:11:21;5.80;;;3.10;;
68025;SDS011;54819;48.030;14.710;2022-10-31T04:14:11;6.90;;;4.10;;
68025;SDS011;54819;48.030;14.710;2022-10-31T04:16:41;7.90;;;3.90;;
68025;SDS011;54819;48.030;14.710;2022-10-31T04:19:11;12.80;;;4.20;;
68025;SDS011;54819;48.030;14.710;2022-10-31T04:21:39;9.70;;;3.70;;
68025;SDS011;54819;48.030;14.710;2022-10-31T04:24:06;6.20;;;3.80;;
68025;SDS011;54819;48.030;14.710;2022-10-31T04:26:33;6.30;;;4.30;;
68025;SDS011;54819;48.030;14.710;2022-10-31T04:29:00;6.00;;;3.60;;
68025;SDS011;54819;48.030;14.710;2022-10-31T04:31:27;6.30;;;3.30;;
68025;SDS011;54819;48.030;14.710;2022-10-31T04:33:54;8.00;;;3.90;;
68025;SDS011;54819;48.030;14.710;2022-10-31T04:36:22;12.70;;;3.80;;
68025;SDS011;54819;48.030;14.710;2022-10-31T04:38:48;5.60;;;3.30;;
68025;SDS011;54819;48.030;14.710;2022-10-31T04:41:30;7.10;;;4.00;;
68025;SDS011;54819;48.030;14.710;2022-10-31T04:44:00;7.80;;;4.10;;
68025;SDS011;54819;48.030;14.710;2022-10-31T04:46:27;8.40;;;2.80;;
68025;SDS011;54819;48.030;14.710;2022-10-31T04:48:55;7.20;;;3.50;;
68025;SDS011;54819;48.030;14.710;2022-10-31T04:51:22;5.30;;;2.90;;
68025;SDS011;54819;48.030;14.710;2022-10-31T04:53:49;5.50;;;2.90;;
68025;SDS011;54819;48.030;14.710;2022-10-31T04:56:22;4.80;;;2.70;;
68025;SDS011;54819;48.030;14.710;2022-10-31T04:58:55;4.30;;;2.60;;
68025;SDS011;54819;48.030;14.710;2022-10-31T05:01:22;7.00;;;3.80;;
68025;SDS011;54819;48.030;14.710;2022-10-31T05:03:50;5.90;;;3.30;;
68025;SDS011;54819;48.030;14.710;2022-10-31T05:06:17;5.90;;;3.20;;
68025;SDS011;54819;48.030;14.710;2022-10-31T05:08:44;7.70;;;3.40;;
68025;SDS011;54819;48.030;14.710;2022-10-31T05:11:11;6.20;;;2.90;;
68025;SDS011;54819;48.030;14.710;2022-10-31T05:13:38;4.80;;;3.00;;
68025;SDS011;54819;48.030;14.710;2022-10-31T05:16:28;3.80;;;2.50;;
68025;SDS011;54819;48.030;14.710;2022-10-31T05:19:15;6.60;;;3.30;;
68025;SDS011;54819;48.030;14.710;2022-10-31T05:22:11;11.10;;;5.30;;
68025;SDS011;54819;48.030;14.710;2022-10-31T05:24:38;10.40;;;5.50;;
68025;SDS011;54819;48.030;14.710;2022-10-31T05:27:08;7.80;;;3.90;;
68025;SDS011;54819;48.030;14.710;2022-10-31T05:29:35;4.70;;;3.00;;
68025;SDS011;54819;48.030;14.710;2022-10-31T05:32:02;16.20;;;7.20;;
68025;SDS011;54819;48.030;14.710;2022-10-31T05:35:11;18.40;;;7.40;;
68025;SDS011;54819;48.030;14.710;2022-10-31T05:38:02;15.30;;;6.60;;
68025;SDS011;54819;48.030;14.710;2022-10-31T05:40:30;11.60;;;6.00;;
68025;SDS011;54819;48.030;14.710;2022-10-31T05:42:57;28.50;;;13.40;;
68025;SDS011;54819;48.030;14.710;2022-10-31T05:45:25;21.70;;;11.30;;
68025;SDS011;54819;48.030;14.710;2022-10-31T05:47:58;13.50;;;8.10;;
68025;SDS011;54819;48.030;14.710;2022-10-31T05:51:00;17.00;;;11.60;;
68025;SDS011;54819;48.030;14.710;2022-10-31T05:53:28;9.50;;;6.30;;
68025;SDS011;54819;48.030;14.710;2022-10-31T05:55:55;6.60;;;3.70;;
68025;SDS011;54819;48.030;14.710;2022-10-31T05:58:22;4.30;;;2.50;;
68025;SDS011;54819;48.030;14.710;2022-10-31T06:00:58;5.30;;;2.50;;
68025;SDS011;54819;48.030;14.710;2022-10-31T06:03:25;4.70;;;2.40;;
68025;SDS011;54819;48.030;14.710;2022-10-31T06:05:55;9.90;;;3.90;;
68025;SDS011;54819;48.030;14.710;2022-10-31T06:08:29;5.90;;;3.00;;
68025;SDS011;54819;48.030;14.710;2022-10-31T06:10:59;6.20;;;3.70;;
68025;SDS011;54819;48.030;14.710;2022-10-31T06:13:46;4.50;;;2.20;;
68025;SDS011;54819;48.030;14.710;2022-10-31T06:16:21;3.60;;;2.20;;
68025;SDS011;54819;48.030;14.710;2022-10-31T06:18:49;4.20;;;2.80;;
68025;SDS011;54819;48.030;14.710;2022-10-31T06:21:17;4.40;;;2.70;;
68025;SDS011;54819;48.030;14.710;2022-10-31T06:23:46;3.30;;;2.20;;
68025;SDS011;54819;48.030;14.710;2022-10-31T06:26:24;5.10;;;2.80;;
68025;SDS011;54819;48.030;14.710;2022-10-31T06:28:51;4.10;;;2.50;;
68025;SDS011;54819;48.030;14.710;2022-10-31T06:31:37;5.10;;;2.90;;
68025;SDS011;54819;48.030;14.710;2022-10-31T06:34:03;5.80;;;2.60;;
68025;SDS011;54819;48.030;14.710;2022-10-31T06:36:31;5.70;;;2.20;;
68025;SDS011;54819;48.030;14.710;2022-10-31T06:38:58;8.80;;;3.00;;
68025;SDS011;54819;48.030;14.710;2022-10-31T06:41:25;6.40;;;3.10;;
68025;SDS011;54819;48.030;14.710;2022-10-31T06:43:53;12.00;;;4.80;;
68025;SDS011;54819;48.030;14.710;2022-10-31T06:46:32;13.80;;;6.90;;
68025;SDS011;54819;48.030;14.710;2022-10-31T06:49:08;11.70;;;6.20;;
68025;SDS011;54819;48.030;14.710;2022-10-31T06:51:41;12.70;;;6.90;;
68025;SDS011;54819;48.030;14.710;2022-10-31T06:54:08;11.30;;;6.40;;
68025;SDS011;54819;48.030;14.710;2022-10-31T06:56:36;10.60;;;6.00;;
68025;SDS011;54819;48.030;14.710;2022-10-31T06:59:03;10.90;;;7.00;;
68025;SDS011;54819;48.030;14.710;2022-10-31T07:01:53;12.60;;;8.30;;
68025;SDS011;54819;48.030;14.710;2022-10-31T07:04:21;16.00;;;7.20;;
68025;SDS011;54819;48.030;14.710;2022-10-31T07:06:51;10.20;;;5.30;;
68025;SDS011;54819;48.030;14.710;2022-10-31T07:09:19;7.30;;;3.90;;
68025;SDS011;54819;48.030;14.710;2022-10-31T07:11:46;7.90;;;3.50;;
68025;SDS011;54819;48.030;14.710;2022-10-31T07:14:13;8.50;;;4.20;;
68025;SDS011;54819;48.030;14.710;2022-10-31T07:16:40;8.30;;;3.90;;
68025;SDS011;54819;48.030;14.710;2022-10-31T07:19:08;8.10;;;4.10;;
68025;SDS011;54819;48.030;14.710;2022-10-31T07:21:36;17.00;;;7.50;;
68025;SDS011;54819;48.030;14.710;2022-10-31T07:24:03;32.10;;;11.70;;
68025;SDS011;54819;48.030;14.710;2022-10-31T07:26:43;21.20;;;7.90;;
68025;SDS011;54819;48.030;14.710;2022-10-31T07:29:12;27.30;;;10.80;;
68025;SDS011;54819;48.030;14.710;2022-10-31T07:31:39;59.40;;;25.20;;
68025;SDS011;54819;48.030;14.710;2022-10-31T07:34:13;116.30;;;43.50;;
68025;SDS011;54819;48.030;14.710;2022-10-31T07:36:58;137.40;;;49.90;;
68025;SDS011;54819;48.030;14.710;2022-10-31T07:39:25;75.20;;;26.00;;
68025;SDS011;54819;48.030;14.710;2022-10-31T07:41:52;69.40;;;25.20;;
68025;SDS011;54819;48.030;14.710;2022-10-31T07:44:19;83.40;;;29.60;;
68025;SDS011;54819;48.030;14.710;2022-10-31T07:47:09;94.80;;;34.80;;
68025;SDS011;54819;48.030;14.710;2022-10-31T07:50:10;100.70;;;37.10;;
68025;SDS011;54819;48.030;14.710;2022-10-31T07:55:44;79.00;;;28.10;;
68025;SDS011;54819;48.030;14.710;2022-10-31T07:58:14;69.70;;;24.60;;
68025;SDS011;54819;48.030;14.710;2022-10-31T08:00:45;77.40;;;25.70;;
68025;SDS011;54819;48.030;14.710;2022-10-31T08:03:17;56.60;;;19.40;;
68025;SDS011;54819;48.030;14.710;2022-10-31T08:05:54;40.00;;;15.30;;
68025;SDS011;54819;48.030;14.710;2022-10-31T08:08:41;42.80;;;19.10;;
68025;SDS011;54819;48.030;14.710;2022-10-31T08:11:08;40.40;;;15.80;;
68025;SDS011;54819;48.030;14.710;2022-10-31T08:13:36;37.90;;;14.80;;
68025;SDS011;54819;48.030;14.710;2022-10-31T08:16:03;23.30;;;8.80;;
68025;SDS011;54819;48.030;14.710;2022-10-31T08:18:35;30.70;;;10.80;;
68025;SDS011;54819;48.030;14.710;2022-10-31T08:21:05;36.60;;;14.10;;
68025;SDS011;54819;48.030;14.710;2022-10-31T08:23:32;32.10;;;11.30;;
68025;SDS011;54819;48.030;14.710;2022-10-31T08:25:58;23.80;;;10.00;;
68025;SDS011;54819;48.030;14.710;2022-10-31T08:28:25;28.10;;;11.80;;
68025;SDS011;54819;48.030;14.710;2022-10-31T08:30:53;47.30;;;17.40;;
68025;SDS011;54819;48.030;14.710;2022-10-31T08:33:38;39.40;;;15.10;;
68025;SDS011;54819;48.030;14.710;2022-10-31T08:36:24;20.00;;;7.30;;
68025;SDS011;54819;48.030;14.710;2022-10-31T08:38:56;18.30;;;6.70;;
68025;SDS011;54819;48.030;14.710;2022-10-31T08:41:28;11.20;;;4.50;;
68025;SDS011;54819;48.030;14.710;2022-10-31T08:43:55;6.70;;;3.30;;
68025;SDS011;54819;48.030;14.710;2022-10-31T08:46:22;6.00;;;2.90;;
68025;SDS011;54819;48.030;14.710;2022-10-31T08:48:49;8.90;;;3.40;;
68025;SDS011;54819;48.030;14.710;2022-10-31T08:51:18;8.20;;;4.10;;
68025;SDS011;54819;48.030;14.710;2022-10-31T08:53:47;8.20;;;4.30;;
68025;SDS011;54819;48.030;14.710;2022-10-31T08:56:34;6.30;;;2.90;;
68025;SDS011;54819;48.030;14.710;2022-10-31T08:59:03;9.40;;;3.90;;
68025;SDS011;54819;48.030;14.710;2022-10-31T09:01:40;6.90;;;3.50;;
68025;SDS011;54819;48.030;14.710;2022-10-31T09:04:08;9.30;;;5.60;;
68025;SDS011;54819;48.030;14.710;2022-10-31T09:06:35;5.30;;;3.20;;
68025;SDS011;54819;48.030;14.710;2022-10-31T09:09:03;8.60;;;4.40;;
68025;SDS011;54819;48.030;14.710;2022-10-31T09:11:31;8.00;;;4.60;;
68025;SDS011;54819;48.030;14.710;2022-10-31T09:14:10;11.80;;;5.50;;
68025;SDS011;54819;48.030;14.710;2022-10-31T09:16:37;8.40;;;4.30;;
68025;SDS011;54819;48.030;14.710;2022-10-31T09:19:05;8.60;;;4.30;;
68025;SDS011;54819;48.030;14.710;2022-10-31T09:21:37;6.60;;;2.70;;
68025;SDS011;54819;48.030;14.710;2022-10-31T09:24:04;5.30;;;2.80;;
68025;SDS011;54819;48.030;14.710;2022-10-31T09:26:33;5.40;;;2.70;;
68025;SDS011;54819;48.030;14.710;2022-10-31T09:29:09;6.80;;;2.70;;
68025;SDS011;54819;48.030;14.710;2022-10-31T09:31:36;5.80;;;2.90;;
68025;SDS011;54819;48.030;14.710;2022-10-31T09:34:24;9.30;;;3.40;;
68025;SDS011;54819;48.030;14.710;2022-10-31T09:37:04;7.80;;;3.30;;
68025;SDS011;54819;48.030;14.710;2022-10-31T09:39:33;5.80;;;3.10;;
68025;SDS011;54819;48.030;14.710;2022-10-31T09:51:29;6.00;;;3.10;;
68025;SDS011;54819;48.030;14.710;2022-10-31T09:54:29;11.70;;;3.70;;
68025;SDS011;54819;48.030;14.710;2022-10-31T09:57:03;7.90;;;3.40;;
68025;SDS011;54819;48.030;14.710;2022-10-31T09:59:38;6.90;;;3.50;;
68025;SDS011;54819;48.030;14.710;2022-10-31T10:05:21;6.40;;;2.80;;
68025;SDS011;54819;48.030;14.710;2022-10-31T10:08:05;6.40;;;3.70;;
68025;SDS011;54819;48.030;14.710;2022-10-31T10:14:16;8.70;;;3.70;;
68025;SDS011;54819;48.030;14.710;2022-10-31T10:17:02;5.40;;;3.40;;
68025;SDS011;54819;48.030;14.710;2022-10-31T10:22:47;9.50;;;3.70;;
68025;SDS011;54819;48.030;14.710;2022-10-31T10:25:39;7.20;;;4.00;;
68025;SDS011;54819;48.030;14.710;2022-10-31T10:30:50;6.50;;;3.90;;
68025;SDS011;54819;48.030;14.710;2022-10-31T10:33:54;7.00;;;4.20;;
68025;SDS011;54819;48.030;14.710;2022-10-31T10:36:43;8.40;;;4.50;;
68025;SDS011;54819;48.030;14.710;2022-10-31T10:39:25;9.20;;;4.30;;
68025;SDS011;54819;48.030;14.710;2022-10-31T10:41:59;7.90;;;4.60;;
68025;SDS011;54819;48.030;14.710;2022-10-31T10:47:58;6.70;;;4.30;;
68025;SDS011;54819;48.030;14.710;2022-10-31T10:50:39;9.90;;;4.00;;
68025;SDS011;54819;48.030;14.710;2022-10-31T10:56:17;8.30;;;3.70;;
68025;SDS011;54819;48.030;14.710;2022-10-31T10:58:54;6.40;;;3.20;;
68025;SDS011;54819;48.030;14.710;2022-10-31T11:01:22;7.40;;;3.80;;
68025;SDS011;54819;48.030;14.710;2022-10-31T11:03:49;9.00;;;4.60;;
68025;SDS011;54819;48.030;14.710;2022-10-31T11:06:22;9.50;;;4.20;;
68025;SDS011;54819;48.030;14.710;2022-10-31T11:08:52;7.80;;;4.30;;
68025;SDS011;54819;48.030;14.710;2022-10-31T11:11:28;13.40;;;4.20;;
68025;SDS011;54819;48.030;14.710;2022-10-31T11:14:03;7.40;;;4.10;;
68025;SDS011;54819;48.030;14.710;2022-10-31T11:16:42;9.70;;;4.40;;
68025;SDS011;54819;48.030;14.710;2022-10-31T11:19:25;7.50;;;3.90;;
68025;SDS011;54819;48.030;14.710;2022-10-31T11:21:53;8.50;;;4.60;;
68025;SDS011;54819;48.030;14.710;2022-10-31T11:24:38;11.30;;;4.60;;
68025;SDS011;54819;48.030;14.710;2022-10-31T11:27:21;11.10;;;4.80;;
68025;SDS011;54819;48.030;14.710;2022-10-31T11:29:50;10.30;;;4.80;;
68025;SDS011;54819;48.030;14.710;2022-10-31T11:32:27;8.60;;;4.50;;
68025;SDS011;54819;48.030;14.710;2022-10-31T11:35:00;9.00;;;4.80;;
68025;SDS011;54819;48.030;14.710;2022-10-31T11:37:32;13.40;;;4.50;;
68025;SDS011;54819;48.030;14.710;2022-10-31T11:40:05;13.70;;;5.20;;
68025;SDS011;54819;48.030;14.710;2022-10-31T11:42:39;9.40;;;4.80;;
68025;SDS011;54819;48.030;14.710;2022-10-31T11:45:32;16.10;;;6.00;;
68025;SDS011;54819;48.030;14.710;2022-10-31T11:48:01;14.30;;;5.50;;
68025;SDS011;54819;48.030;14.710;2022-10-31T11:50:41;8.70;;;4.90;;
68025;SDS011;54819;48.030;14.710;2022-10-31T11:53:19;9.90;;;4.60;;
68025;SDS011;54819;48.030;14.710;2022-10-31T11:59:01;11.20;;;5.30;;
68025;SDS011;54819;48.030;14.710;2022-10-31T12:01:32;9.70;;;4.90;;
68025;SDS011;54819;48.030;14.710;2022-10-31T12:04:13;10.60;;;5.20;;
68025;SDS011;54819;48.030;14.710;2022-10-31T12:06:41;10.40;;;5.30;;
68025;SDS011;54819;48.030;14.710;2022-10-31T12:09:22;9.80;;;5.50;;
68025;SDS011;54819;48.030;14.710;2022-10-31T13:01:39;15.80;;;7.60;;
68025;SDS011;54819;48.030;14.710;2022-10-31T13:05:02;12.80;;;8.30;;
68025;SDS011;54819;48.030;14.710;2022-10-31T13:07:56;15.70;;;8.40;;
68025;SDS011;54819;48.030;14.710;2022-10-31T13:11:18;13.40;;;7.50;;
68025;SDS011;54819;48.030;14.710;2022-10-31T13:13:57;17.30;;;9.40;;
68025;SDS011;54819;48.030;14.710;2022-10-31T13:16:27;14.90;;;8.70;;
68025;SDS011;54819;48.030;14.710;2022-10-31T13:24:44;17.40;;;9.70;;
68025;SDS011;54819;48.030;14.710;2022-10-31T13:27:22;17.40;;;10.50;;
68025;SDS011;54819;48.030;14.710;2022-10-31T13:32:41;16.40;;;10.80;;
68025;SDS011;54819;48.030;14.710;2022-10-31T13:44:25;21.50;;;11.20;;
68025;SDS011;54819;48.030;14.710;2022-10-31T13:46:56;22.10;;;11.80;;
68025;SDS011;54819;48.030;14.710;2022-10-31T13:54:37;23.00;;;13.20;;
68025;SDS011;54819;48.030;14.710;2022-10-31T13:57:13;21.40;;;12.40;;
68025;SDS011;54819;48.030;14.710;2022-10-31T13:59:47;25.70;;;14.70;;
68025;SDS011;54819;48.030;14.710;2022-10-31T14:02:21;30.80;;;15.60;;
68025;SDS011;54819;48.030;14.710;2022-10-31T14:04:59;28.70;;;14.90;;
68025;SDS011;54819;48.030;14.710;2022-10-31T14:07:42;30.10;;;16.00;;
68025;SDS011;54819;48.030;14.710;2022-10-31T14:10:24;31.40;;;16.40;;
68025;SDS011;54819;48.030;14.710;2022-10-31T14:17:22;27.60;;;15.90;;
68025;SDS011;54819;48.030;14.710;2022-10-31T14:19:59;31.30;;;17.10;;
68025;SDS011;54819;48.030;14.710;2022-10-31T14:22:31;36.40;;;17.50;;
68025;SDS011;54819;48.030;14.710;2022-10-31T14:28:18;37.00;;;19.60;;
68025;SDS011;54819;48.030;14.710;2022-10-31T14:30:55;35.20;;;20.00;;
68025;SDS011;54819;48.030;14.710;2022-10-31T14:33:26;33.70;;;18.10;;
68025;SDS011;54819;48.030;14.710;2022-10-31T14:36:18;34.80;;;19.60;;
68025;SDS011;54819;48.030;14.710;2022-10-31T14:39:15;31.40;;;18.10;;
68025;SDS011;54819;48.030;14.710;2022-10-31T14:42:28;33.20;;;18.90;;
68025;SDS011;54819;48.030;14.710;2022-10-31T14:53:18;44.10;;;21.00;;
68025;SDS011;54819;48.030;14.710;2022-10-31T14:55:48;37.60;;;20.60;;
68025;SDS011;54819;48.030;14.710;2022-10-31T14:59:01;38.50;;;21.00;;
68025;SDS011;54819;48.030;14.710;2022-10-31T15:01:25;37.00;;;20.60;;
68025;SDS011;54819;48.030;14.710;2022-10-31T15:04:25;37.70;;;20.20;;
68025;SDS011;54819;48.030;14.710;2022-10-31T15:07:10;34.80;;;19.40;;
68025;SDS011;54819;48.030;14.710;2022-10-31T15:10:00;36.20;;;19.10;;
68025;SDS011;54819;48.030;14.710;2022-10-31T15:12:32;30.60;;;18.00;;
68025;SDS011;54819;48.030;14.710;2022-10-31T15:15:24;33.10;;;18.00;;
68025;SDS011;54819;48.030;14.710;2022-10-31T15:17:57;39.30;;;19.70;;
68025;SDS011;54819;48.030;14.710;2022-10-31T15:20:30;38.80;;;18.70;;
68025;SDS011;54819;48.030;14.710;2022-10-31T15:23:01;36.40;;;19.10;;
68025;SDS011;54819;48.030;14.710;2022-10-31T15:25:33;34.10;;;19.10;;
68025;SDS011;54819;48.030;14.710;2022-10-31T15:28:13;34.40;;;17.80;;
68025;SDS011;54819;48.030;14.710;2022-10-31T15:30:50;30.60;;;17.60;;
68025;SDS011;54819;48.030;14.710;2022-10-31T15:33:24;37.20;;;17.50;;
68025;SDS011;54819;48.030;14.710;2022-10-31T15:36:03;29.80;;;16.40;;
68025;SDS011;54819;48.030;14.710;2022-10-31T15:38:30;30.90;;;16.00;;
68025;SDS011;54819;48.030;14.710;2022-10-31T15:41:03;27.90;;;15.60;;
68025;SDS011;54819;48.030;14.710;2022-10-31T15:43:36;31.20;;;15.40;;
68025;SDS011;54819;48.030;14.710;2022-10-31T15:46:07;26.30;;;14.90;;
68025;SDS011;54819;48.030;14.710;2022-10-31T15:48:37;22.20;;;12.60;;
68025;SDS011;54819;48.030;14.710;2022-10-31T15:51:05;24.60;;;14.10;;
68025;SDS011;54819;48.030;14.710;2022-10-31T15:53:37;23.10;;;12.60;;
68025;SDS011;54819;48.030;14.710;2022-10-31T15:56:13;25.30;;;13.70;;
68025;SDS011;54819;48.030;14.710;2022-10-31T15:58:50;25.00;;;13.00;;
68025;SDS011;54819;48.030;14.710;2022-10-31T16:01:25;24.50;;;12.80;;
68025;SDS011;54819;48.030;14.710;2022-10-31T16:06:39;22.40;;;12.40;;
68025;SDS011;54819;48.030;14.710;2022-10-31T16:09:23;22.00;;;12.50;;
68025;SDS011;54819;48.030;14.710;2022-10-31T16:11:51;21.20;;;11.90;;
68025;SDS011;54819;48.030;14.710;2022-10-31T16:14:22;23.30;;;11.80;;
68025;SDS011;54819;48.030;14.710;2022-10-31T16:16:53;23.60;;;11.80;;
68025;SDS011;54819;48.030;14.710;2022-10-31T16:19:28;22.00;;;12.00;;
68025;SDS011;54819;48.030;14.710;2022-10-31T16:22:08;18.20;;;10.80;;
68025;SDS011;54819;48.030;14.710;2022-10-31T16:24:58;18.10;;;10.30;;
68025;SDS011;54819;48.030;14.710;2022-10-31T16:27:33;15.20;;;8.90;;
68025;SDS011;54819;48.030;14.710;2022-10-31T16:30:28;17.40;;;8.70;;
68025;SDS011;54819;48.030;14.710;2022-10-31T16:33:32;22.20;;;8.90;;
68025;SDS011;54819;48.030;14.710;2022-10-31T16:36:29;15.20;;;9.30;;
68025;SDS011;54819;48.030;14.710;2022-10-31T16:39:02;13.70;;;8.10;;
68025;SDS011;54819;48.030;14.710;2022-10-31T16:41:39;13.70;;;8.60;;
68025;SDS011;54819;48.030;14.710;2022-10-31T16:47:15;12.00;;;6.90;;
68025;SDS011;54819;48.030;14.710;2022-10-31T16:49:45;12.60;;;7.20;;
68025;SDS011;54819;48.030;14.710;2022-10-31T16:52:15;14.00;;;8.30;;
68025;SDS011;54819;48.030;14.710;2022-10-31T16:54:43;14.90;;;7.80;;
68025;SDS011;54819;48.030;14.710;2022-10-31T16:57:14;14.30;;;7.50;;
68025;SDS011;54819;48.030;14.710;2022-10-31T16:59:48;12.70;;;7.20;;
68025;SDS011;54819;48.030;14.710;2022-10-31T17:02:18;14.40;;;8.40;;
68025;SDS011;54819;48.030;14.710;2022-10-31T17:04:45;15.10;;;7.90;;
68025;SDS011;54819;48.030;14.710;2022-10-31T17:07:16;14.40;;;7.80;;
68025;SDS011;54819;48.030;14.710;2022-10-31T17:09:44;13.40;;;8.40;;
68025;SDS011;54819;48.030;14.710;2022-10-31T17:12:18;10.80;;;7.10;;
68025;SDS011;54819;48.030;14.710;2022-10-31T17:14:50;11.90;;;6.90;;
68025;SDS011;54819;48.030;14.710;2022-10-31T17:17:18;12.60;;;7.00;;
68025;SDS011;54819;48.030;14.710;2022-10-31T17:19:46;11.80;;;7.60;;
68025;SDS011;54819;48.030;14.710;2022-10-31T17:22:14;14.10;;;6.80;;
68025;SDS011;54819;48.030;14.710;2022-10-31T17:24:41;11.10;;;6.60;;
68025;SDS011;54819;48.030;14.710;2022-10-31T17:27:09;11.90;;;6.40;;
68025;SDS011;54819;48.030;14.710;2022-10-31T17:29:37;11.90;;;6.80;;
68025;SDS011;54819;48.030;14.710;2022-10-31T17:32:05;12.30;;;7.60;;
68025;SDS011;54819;48.030;14.710;2022-10-31T17:34:32;11.60;;;6.80;;
68025;SDS011;54819;48.030;14.710;2022-10-31T17:36:59;12.80;;;7.10;;
68025;SDS011;54819;48.030;14.710;2022-10-31T17:39:26;13.10;;;7.20;;
68025;SDS011;54819;48.030;14.710;2022-10-31T17:41:53;11.70;;;6.70;;
68025;SDS011;54819;48.030;14.710;2022-10-31T17:44:21;13.00;;;7.60;;
68025;SDS011;54819;48.030;14.710;2022-10-31T17:46:48;12.50;;;6.70;;
68025;SDS011;54819;48.030;14.710;2022-10-31T17:49:16;11.10;;;6.80;;
68025;SDS011;54819;48.030;14.710;2022-10-31T17:51:43;12.80;;;7.20;;
68025;SDS011;54819;48.030;14.710;2022-10-31T17:54:11;11.80;;;7.20;;
68025;SDS011;54819;48.030;14.710;2022-10-31T17:56:39;14.40;;;7.00;;
68025;SDS011;54819;48.030;14.710;2022-10-31T17:59:06;12.10;;;6.90;;
68025;SDS011;54819;48.030;14.710;2022-10-31T18:01:33;13.10;;;7.70;;
68025;SDS011;54819;48.030;14.710;2022-10-31T18:04:01;14.80;;;6.70;;
68025;SDS011;54819;48.030;14.710;2022-10-31T18:06:27;17.70;;;7.60;;
68025;SDS011;54819;48.030;14.710;2022-10-31T18:08:54;14.60;;;8.10;;